UIQ weather

Quion Hill Airport
Quion Hill, Shefa, Vanuatu

Public forecast

Using degrees Celsius for public forecast. Weather courtesy of forecast.io.

Closest aviation weather report (METAR) to Quion Hill Airport

Closest report is Bauerfield International Airport, 11.8 nm (21.9 km) SW. Retrieved 2019/11/17 18:00 UTC (53 minutes ago):

NVVV 171800Z 08003KT 9999 SCT020 BKN110 24/23 Q1012

Closest aviation forecast (TAF) to Quion Hill Airport

Closest forecast is Bauerfield International Airport, 11.8 nm (21.9 km) SW. Retrieved 2019/11/17 18:03 UTC (50 minutes ago):

TAF TAF NVVV 171600Z 1718/1818 10008KT 9999 SCT020 BKN040 INTER 1718/1724 9000 SHRA BKN018 OVC035